createdAt,value
2023-04-18T00:00:56.458Z,8.95
2023-04-18T00:05:59.354Z,9.02
2023-04-18T00:11:01.061Z,7.63
2023-04-18T00:16:02.772Z,10.65
2023-04-18T00:21:04.895Z,8.65
2023-04-18T00:26:06.691Z,7.95
2023-04-18T00:31:08.663Z,7.68
2023-04-18T00:36:10.836Z,7.57
2023-04-18T00:41:12.672Z,8.65
2023-04-18T00:46:14.654Z,9.23
2023-04-18T00:51:17.171Z,11.57
2023-04-18T00:56:19.250Z,9.82
2023-04-18T01:01:21.335Z,8.45
2023-04-18T01:06:23.605Z,11.55
2023-04-18T01:11:25.642Z,11.07
2023-04-18T01:16:29.165Z,10.63
2023-04-18T01:21:33.983Z,11.68
2023-04-18T01:26:35.838Z,10.43
2023-04-18T01:31:40.993Z,10.98
2023-04-18T01:36:42.706Z,10.85
2023-04-18T01:41:46.500Z,10.00
2023-04-18T01:46:48.325Z,9.48
2023-04-18T01:51:50.024Z,9.75
2023-04-18T01:56:51.735Z,9.48
2023-04-18T02:01:53.556Z,10.40
2023-04-18T02:06:55.353Z,9.88
2023-04-18T02:11:59.380Z,10.30
2023-04-18T02:17:01.272Z,9.75
2023-04-18T02:22:03.038Z,9.50
2023-04-18T02:27:06.579Z,8.05
2023-04-18T02:32:09.207Z,9.00
2023-04-18T02:37:11.602Z,9.10
2023-04-18T02:42:15.516Z,7.75
2023-04-18T02:47:17.486Z,8.65
2023-04-18T02:52:21.404Z,9.02
2023-04-18T02:57:23.226Z,7.50
2023-04-18T03:02:33.380Z,7.38
2023-04-18T03:07:44.412Z,8.50
2023-04-18T03:12:47.602Z,6.75
2023-04-18T03:17:51.615Z,7.22
2023-04-18T03:22:55.947Z,7.90
2023-04-18T03:33:05.202Z,9.48
2023-04-18T03:43:13.164Z,9.20
2023-04-18T03:48:15.173Z,9.93
2023-04-18T03:53:19.029Z,11.18
2023-04-18T03:58:23.645Z,11.32
2023-04-18T04:03:27.834Z,10.80
2023-04-18T04:08:30.892Z,11.25
2023-04-18T04:13:32.664Z,11.25
2023-04-18T04:18:34.535Z,11.50
2023-04-18T04:23:38.022Z,10.57
2023-04-18T04:28:40.128Z,10.75
2023-04-18T04:33:43.573Z,10.80
2023-04-18T04:38:52.323Z,11.20
2023-04-18T04:43:59.516Z,10.93
2023-04-18T04:49:07.235Z,11.02
2023-04-18T04:54:09.261Z,10.87
2023-04-18T04:59:11.336Z,11.38
2023-04-18T05:04:19.553Z,10.63
2023-04-18T05:09:22.117Z,10.80
2023-04-18T05:14:23.891Z,10.48
2023-04-18T05:19:25.717Z,9.50
2023-04-18T05:24:27.436Z,9.77
2023-04-18T05:29:29.093Z,9.27
2023-04-18T05:34:31.777Z,9.40
2023-04-18T05:39:33.606Z,8.50
2023-04-18T05:44:36.588Z,9.25
2023-04-18T05:49:38.370Z,8.77
2023-04-18T05:54:40.442Z,8.57
2023-04-18T05:59:42.325Z,8.60
2023-04-18T06:04:44.198Z,8.70
2023-04-18T06:09:46.070Z,7.75
2023-04-18T06:14:47.755Z,8.40
2023-04-18T06:19:49.452Z,7.60
2023-04-18T06:24:51.157Z,6.90
2023-04-18T06:29:52.887Z,7.10
2023-04-18T06:34:54.585Z,6.88
2023-04-18T06:39:56.490Z,6.55
2023-04-18T06:44:58.232Z,6.78
2023-04-18T06:49:59.914Z,6.57
2023-04-18T06:55:01.582Z,5.53
2023-04-18T07:00:05.472Z,5.90
2023-04-18T07:05:08.898Z,5.45
2023-04-18T07:10:11.611Z,5.10
2023-04-18T07:15:13.764Z,5.03
2023-04-18T07:20:16.134Z,4.93
2023-04-18T07:25:17.944Z,5.40
2023-04-18T07:30:19.986Z,5.15
2023-04-18T07:35:21.883Z,5.78
2023-04-18T07:40:23.568Z,5.10
2023-04-18T07:45:25.731Z,5.88
2023-04-18T07:50:27.882Z,5.50
2023-04-18T07:55:30.628Z,5.55
2023-04-18T08:00:32.758Z,5.57
2023-04-18T08:05:34.812Z,5.53
2023-04-18T08:10:37.359Z,5.10
2023-04-18T08:15:42.455Z,5.88
2023-04-18T08:20:44.240Z,5.05
2023-04-18T08:25:46.007Z,5.53
2023-04-18T08:30:49.078Z,5.82
2023-04-18T08:35:54.302Z,5.13
2023-04-18T08:40:56.051Z,5.25
2023-04-18T08:45:59.897Z,5.47
2023-04-18T08:51:02.217Z,5.60
2023-04-18T08:56:05.686Z,5.25
2023-04-18T09:01:07.864Z,5.15
2023-04-18T09:06:19.392Z,5.00
2023-04-18T09:11:29.206Z,5.25
2023-04-18T09:16:46.618Z,5.35
2023-04-18T09:22:01.861Z,5.25
2023-04-18T09:27:11.947Z,5.07
2023-04-18T09:32:29.265Z,5.38
2023-04-18T09:37:31.254Z,5.68
2023-04-18T09:42:37.094Z,5.35
2023-04-18T09:47:39.828Z,5.40
2023-04-18T09:52:42.859Z,5.00
2023-04-18T09:57:47.133Z,5.32
2023-04-18T10:02:57.888Z,5.57
2023-04-18T10:07:59.999Z,5.38
2023-04-18T10:13:02.860Z,5.88
2023-04-18T10:18:15.189Z,5.47
2023-04-18T10:23:36.484Z,5.97
2023-04-18T10:28:58.000Z,5.28
2023-04-18T10:39:22.405Z,6.43
2023-04-18T10:44:24.298Z,6.13
2023-04-18T10:49:34.500Z,6.47
2023-04-18T10:54:47.354Z,6.55
2023-04-18T10:59:50.919Z,5.90
2023-04-18T11:05:01.589Z,6.30
2023-04-18T11:10:05.208Z,5.88
2023-04-18T11:15:21.310Z,6.03
2023-04-18T11:20:23.206Z,5.78
2023-04-18T11:25:31.867Z,5.97
2023-04-18T11:30:40.936Z,5.47
2023-04-18T11:35:44.827Z,5.60
2023-04-18T11:40:50.092Z,19.83
2023-04-18T11:45:53.527Z,10.02
2023-04-18T11:50:55.348Z,6.55
2023-04-18T11:55:57.023Z,6.70
2023-04-18T12:00:59.808Z,6.85
2023-04-18T12:06:01.662Z,6.68
2023-04-18T12:11:03.486Z,6.88
2023-04-18T12:16:07.878Z,6.88
2023-04-18T12:21:10.412Z,6.57
2023-04-18T12:26:21.166Z,6.10
2023-04-18T12:31:23.078Z,6.57
2023-04-18T12:36:25.373Z,6.68
2023-04-18T12:41:27.112Z,5.43
2023-04-18T12:46:28.881Z,5.72
2023-04-18T12:51:31.427Z,5.25
2023-04-18T12:56:33.137Z,5.18
2023-04-18T13:01:35.037Z,4.95
2023-04-18T13:06:37.731Z,4.75
2023-04-18T13:11:39.422Z,5.07
2023-04-18T13:16:43.489Z,5.53
2023-04-18T13:21:46.852Z,4.97
2023-04-18T13:26:50.146Z,5.30
2023-04-18T13:31:51.834Z,5.78
2023-04-18T13:36:53.585Z,5.40
2023-04-18T13:41:55.735Z,5.35
2023-04-18T13:46:57.925Z,4.88
2023-04-18T13:51:59.753Z,4.97
2023-04-18T13:57:03.188Z,5.50
2023-04-18T14:02:05.633Z,5.20
2023-04-18T14:07:08.195Z,4.78
2023-04-18T14:12:10.319Z,5.85
2023-04-18T14:17:12.230Z,5.65
2023-04-18T14:22:14.179Z,6.80
2023-04-18T14:27:16.007Z,6.90
2023-04-18T14:32:17.913Z,7.22
2023-04-18T14:37:19.813Z,8.25
2023-04-18T14:42:21.838Z,7.15
2023-04-18T14:47:24.402Z,7.32
2023-04-18T14:52:26.251Z,8.15
2023-04-18T14:57:29.973Z,7.53
2023-04-18T15:02:31.892Z,8.35
2023-04-18T15:07:34.373Z,9.50
2023-04-18T15:12:36.117Z,8.93
2023-04-18T15:17:37.814Z,9.10
2023-04-18T15:22:39.525Z,9.02
2023-04-18T15:27:41.232Z,8.95
2023-04-18T15:32:44.079Z,9.48
2023-04-18T15:37:45.850Z,9.13
2023-04-18T15:42:49.378Z,9.70
2023-04-18T15:47:51.542Z,10.13
2023-04-18T15:52:53.321Z,10.73
2023-04-18T15:57:55.439Z,10.93
2023-04-18T16:02:57.219Z,10.57
2023-04-18T16:07:59.426Z,10.95
2023-04-18T16:13:02.279Z,10.27
2023-04-18T16:18:04.431Z,27.00
2023-04-18T16:23:06.439Z,10.35
2023-04-18T16:28:08.751Z,10.57
2023-04-18T16:33:11.144Z,10.68
2023-04-18T16:38:13.069Z,10.88
2023-04-18T16:43:14.996Z,11.20
2023-04-18T16:48:16.856Z,10.75
2023-04-18T16:53:18.742Z,11.35
2023-04-18T16:58:21.572Z,10.90
2023-04-18T17:03:23.536Z,10.80
2023-04-18T17:08:27.070Z,10.85
2023-04-18T17:13:31.326Z,10.17
2023-04-18T17:18:33.268Z,10.50
2023-04-18T17:23:35.055Z,10.23
2023-04-18T17:28:37.077Z,10.57
2023-04-18T17:33:38.837Z,9.45
2023-04-18T17:38:40.744Z,10.40
2023-04-18T17:43:42.978Z,10.13
2023-04-18T17:48:44.726Z,10.15
2023-04-18T17:53:46.736Z,9.68
2023-04-18T17:58:49.162Z,10.20
2023-04-18T18:03:53.528Z,9.82
2023-04-18T18:08:55.965Z,10.15
2023-04-18T18:13:57.718Z,8.82
2023-04-18T18:18:59.586Z,8.60
2023-04-18T18:24:01.280Z,11.70
2023-04-18T18:29:09.460Z,13.05
2023-04-18T18:34:11.536Z,13.45
2023-04-18T18:39:14.756Z,8.45
2023-04-18T18:44:16.807Z,8.25
2023-04-18T18:49:18.640Z,8.10
2023-04-18T18:54:20.583Z,8.38
2023-04-18T18:59:22.441Z,8.70
2023-04-18T19:04:24.503Z,8.88
2023-04-18T19:09:26.432Z,10.07
2023-04-18T19:14:28.196Z,8.68
2023-04-18T19:19:30.008Z,8.35
2023-04-18T19:24:31.977Z,8.23
2023-04-18T19:29:36.034Z,7.93
2023-04-18T19:34:38.021Z,7.88
2023-04-18T19:39:39.772Z,7.38
2023-04-18T19:44:41.878Z,7.78
2023-04-18T19:49:44.315Z,9.45
2023-04-18T19:54:46.159Z,8.13
2023-04-18T19:59:47.993Z,7.60
2023-04-18T20:04:50.093Z,7.47
2023-04-18T20:09:55.173Z,7.40
2023-04-18T20:14:58.712Z,6.97
2023-04-18T20:20:01.079Z,6.77
2023-04-18T20:25:03.006Z,7.07
2023-04-18T20:30:05.590Z,7.47
2023-04-18T20:35:08.559Z,6.90
2023-04-18T20:40:11.379Z,6.35
2023-04-18T20:45:13.727Z,6.47
2023-04-18T20:50:18.158Z,6.57
2023-04-18T20:55:20.130Z,6.20
2023-04-18T21:00:22.140Z,6.05
2023-04-18T21:05:24.114Z,6.57
2023-04-18T21:10:26.476Z,6.18
2023-04-18T21:15:28.247Z,6.13
2023-04-18T21:20:29.983Z,6.53
2023-04-18T21:25:31.768Z,5.82
2023-04-18T21:30:33.953Z,6.40
2023-04-18T21:35:35.710Z,6.25
2023-04-18T21:40:37.705Z,5.50
2023-04-18T21:45:39.451Z,5.75
2023-04-18T21:50:42.983Z,5.53
2023-04-18T21:55:44.759Z,5.30
2023-04-18T22:00:46.535Z,5.72
2023-04-18T22:05:48.428Z,5.60
2023-04-18T22:10:54.955Z,6.40
2023-04-18T22:15:58.250Z,5.75
2023-04-18T22:21:01.460Z,6.00
2023-04-18T22:26:03.479Z,6.13
2023-04-18T22:31:05.659Z,5.80
2023-04-18T22:36:08.098Z,5.93
2023-04-18T22:41:10.240Z,5.95
2023-04-18T22:46:12.422Z,6.55
2023-04-18T22:51:14.908Z,5.50
2023-04-18T22:56:16.851Z,5.80
2023-04-18T23:01:18.794Z,5.55
2023-04-18T23:06:20.980Z,5.82
2023-04-18T23:11:22.892Z,6.25
2023-04-18T23:16:24.753Z,5.97
2023-04-18T23:21:27.803Z,5.15
2023-04-18T23:26:29.632Z,5.05
2023-04-18T23:31:34.664Z,4.15
2023-04-18T23:36:37.211Z,5.07
2023-04-18T23:41:38.966Z,5.75
2023-04-18T23:46:40.775Z,7.72
2023-04-18T23:51:42.585Z,4.70
2023-04-18T23:56:44.355Z,4.40
